Terminal Aerodrome Forecast
Issued by NWS Jacksonville, FL

Home | Current Version | Previous Version | Text Only | Print | Product List | Glossary On
Versions: 1 2 3 4 5 6 7 8 9 10 11 12 13 14 15 16 17 18 19 20 21 22 23 24 25 26 27 28 29 30 31 32 33 34 35 36
000
FTUS42 KJAX 180500
TAFJAX
TAF
KJAX 180527Z 1806/1906 06012KT P6SM VCSH SCT008 BKN012 OVC045
      TEMPO 1806/1807 -SHRA BKN006
     FM181400 08016G25KT 5SM -RA BR OVC008
     FM181900 11016G25KT 2SM RA BR OVC007
     FM190400 16013KT 3SM -RA BR BKN010=

USA.gov is the U.S. government's official web portal to all federal, state and local government web resources and services.